East TN State Univ, Tennessee
Current Conditions -  °F | °C
As of 5:53 PM on Thursday 23 Oct 2014 (Local Time) from KTRI Reporting Station
Few Clouds Few Clouds  
Wind Chill: 57°   Ceiling: Unl
Heat Index: 57°   Visibility: 10mi
Dew Point: 42°   Wind: 3mph
Humidity: 57%   Direction: 40°NE
Pressure: 30.11"   Gusts: NA
Location:  36.3658°N, 82.4151°W
Report Text: KTRI 232153Z 04003KT 10SM FEW150 14/06 A3011 RMK AO2 SLP184 T01390056
Loading
Personal Weather Stations






























Interactive Weather Map New forecast layout! Learn more

10-Day Weather Forecast

Advertisements
Track Severe Weather on mobile